createdAt,value
2022-10-31T00:01:35.041Z,101399.88
2022-10-31T00:04:02.224Z,101405.13
2022-10-31T00:06:29.773Z,101399.63
2022-10-31T00:09:03.291Z,101403.06
2022-10-31T00:11:31.029Z,101397.03
2022-10-31T00:14:01.502Z,101396.94
2022-10-31T00:16:29.673Z,101391.72
2022-10-31T00:19:03.433Z,101397.09
2022-10-31T00:21:31.702Z,101388.09
2022-10-31T00:24:00.449Z,101391.28
2022-10-31T00:26:32.387Z,101385.94
2022-10-31T00:29:02.862Z,101385.31
2022-10-31T00:31:30.323Z,101388.97
2022-10-31T00:33:58.450Z,101392.78
2022-10-31T00:36:25.512Z,101398.84
2022-10-31T00:38:52.583Z,101406.22
2022-10-31T00:41:19.819Z,101398.81
2022-10-31T00:43:49.048Z,101403.25
2022-10-31T00:46:16.227Z,101409.69
2022-10-31T00:48:43.722Z,101404.19
2022-10-31T00:51:11.136Z,101417.44
2022-10-31T00:53:38.178Z,101412.13
2022-10-31T00:56:06.201Z,101417.75
2022-10-31T00:58:33.254Z,101420.47
2022-10-31T01:01:00.415Z,101411.09
2022-10-31T01:03:33.976Z,101415.91
2022-10-31T01:06:11.492Z,101411.34
2022-10-31T01:08:39.356Z,101408.78
2022-10-31T01:11:22.412Z,101409.75
2022-10-31T01:13:53.236Z,101410.34
2022-10-31T01:16:24.321Z,101408.06
2022-10-31T01:18:52.742Z,101415.03
2022-10-31T01:21:27.267Z,101415.09
2022-10-31T01:23:56.448Z,101407.34
2022-10-31T01:26:27.428Z,101417.44
2022-10-31T01:28:58.972Z,101411.94
2022-10-31T01:31:30.348Z,101407.75
2022-10-31T01:34:02.997Z,101409.22
2022-10-31T01:36:38.685Z,101413.47
2022-10-31T01:39:10.432Z,101410.03
2022-10-31T01:41:46.376Z,101410.84
2022-10-31T01:44:18.952Z,101411.38
2022-10-31T01:47:18.862Z,101408.41
2022-10-31T01:50:04.230Z,101413.25
2022-10-31T01:55:34.443Z,101418.78
2022-10-31T01:58:09.899Z,101414.22
2022-10-31T02:00:37.504Z,101411.25
2022-10-31T02:03:04.680Z,101416.41
2022-10-31T02:05:34.610Z,101422.13
2022-10-31T02:08:12.253Z,101412.75
2022-10-31T02:10:39.581Z,101412.44
2022-10-31T02:13:09.290Z,101413.75
2022-10-31T02:15:39.135Z,101423.47
2022-10-31T02:18:08.390Z,101415.28
2022-10-31T02:21:36.139Z,101430.75
2022-10-31T02:24:38.410Z,101437.88
2022-10-31T02:27:19.279Z,101430.06
2022-10-31T02:30:06.596Z,101421.94
2022-10-31T02:33:03.340Z,101429.03
2022-10-31T02:35:58.827Z,101427.72
2022-10-31T02:39:10.236Z,101427.06
2022-10-31T02:42:00.100Z,101423.16
2022-10-31T02:44:51.227Z,101428.78
2022-10-31T02:47:30.297Z,101425.38
2022-10-31T02:50:19.544Z,101429.16
2022-10-31T02:52:52.458Z,101429.53
2022-10-31T02:55:28.761Z,101428.28
2022-10-31T02:58:12.335Z,101430.44
2022-10-31T03:00:56.597Z,101429.22
2022-10-31T03:03:44.131Z,101431.66
2022-10-31T03:06:30.841Z,101428.59
2022-10-31T03:09:20.459Z,101432.53
2022-10-31T03:12:04.076Z,101433.13
2022-10-31T03:14:52.893Z,101433.47
2022-10-31T03:18:02.390Z,101442.16
2022-10-31T03:21:12.585Z,101445.41
2022-10-31T03:23:45.265Z,101441.91
2022-10-31T03:26:15.034Z,101444.63
2022-10-31T03:28:55.995Z,101448.44
2022-10-31T03:31:35.764Z,101447.81
2022-10-31T03:34:05.671Z,101441.47
2022-10-31T03:36:35.603Z,101450.38
2022-10-31T03:39:06.883Z,101445.44
2022-10-31T03:41:39.538Z,101441.34
2022-10-31T03:44:15.815Z,101441.44
2022-10-31T03:46:43.909Z,101445.00
2022-10-31T03:49:12.659Z,101438.56
2022-10-31T03:52:12.412Z,101441.41
2022-10-31T03:54:54.148Z,101445.09
2022-10-31T03:57:47.114Z,101436.03
2022-10-31T04:00:17.242Z,101441.94
2022-10-31T04:02:59.027Z,101445.44
2022-10-31T04:05:26.438Z,101446.53
2022-10-31T04:07:59.487Z,101440.31
2022-10-31T04:10:32.883Z,101447.13
2022-10-31T04:13:11.274Z,101437.47
2022-10-31T04:15:39.453Z,101441.44
2022-10-31T04:18:07.493Z,101438.38
2022-10-31T04:20:40.446Z,101442.25
2022-10-31T04:23:23.648Z,101447.84
2022-10-31T04:25:50.712Z,101441.59
2022-10-31T04:30:44.990Z,101435.13
2022-10-31T04:33:14.341Z,101438.75
2022-10-31T04:35:41.900Z,101444.19
2022-10-31T04:38:08.975Z,101447.28
2022-10-31T04:40:36.151Z,101448.03
2022-10-31T04:43:03.891Z,101445.03
2022-10-31T04:45:31.195Z,101446.94
2022-10-31T04:47:58.646Z,101440.75
2022-10-31T04:50:25.998Z,101446.94
2022-10-31T04:52:53.062Z,101444.28
2022-10-31T04:55:20.203Z,101443.69
2022-10-31T04:57:50.278Z,101447.28
2022-10-31T05:00:20.842Z,101450.75
2022-10-31T05:02:59.654Z,101455.50
2022-10-31T05:05:31.961Z,101460.28
2022-10-31T05:07:59.119Z,101458.25
2022-10-31T05:10:30.568Z,101447.53
2022-10-31T05:13:01.305Z,101446.59
2022-10-31T05:15:30.358Z,101449.06
2022-10-31T05:17:58.425Z,101451.75
2022-10-31T05:20:29.359Z,101457.69
2022-10-31T05:22:58.352Z,101455.41
2022-10-31T05:25:28.451Z,101463.38
2022-10-31T05:27:57.625Z,101458.94
2022-10-31T05:30:29.953Z,101457.38
2022-10-31T05:32:57.895Z,101460.94
2022-10-31T05:35:31.887Z,101465.00
2022-10-31T05:38:00.044Z,101461.88
2022-10-31T05:40:28.664Z,101473.00
2022-10-31T05:42:58.198Z,101468.72
2022-10-31T05:45:25.979Z,101470.22
2022-10-31T05:48:01.994Z,101484.78
2022-10-31T05:50:32.067Z,101485.84
2022-10-31T05:53:05.923Z,101489.28
2022-10-31T05:55:33.714Z,101487.78
2022-10-31T05:58:01.684Z,101491.25
2022-10-31T06:00:30.028Z,101489.63
2022-10-31T06:05:38.719Z,101494.00
2022-10-31T06:08:06.301Z,101492.94
2022-10-31T06:10:33.378Z,101493.97
2022-10-31T06:13:00.565Z,101502.41
2022-10-31T06:15:27.658Z,101507.59
2022-10-31T06:18:03.915Z,101498.06
2022-10-31T06:20:34.214Z,101493.56
2022-10-31T06:23:02.232Z,101500.59
2022-10-31T06:25:29.988Z,101492.66
2022-10-31T06:27:57.880Z,101500.84
2022-10-31T06:30:25.502Z,101500.97
2022-10-31T06:32:52.710Z,101501.22
2022-10-31T06:35:22.753Z,101500.66
2022-10-31T06:37:56.591Z,101504.78
2022-10-31T06:40:24.437Z,101513.88
2022-10-31T06:43:03.686Z,101511.13
2022-10-31T06:45:30.784Z,101527.53
2022-10-31T06:50:46.102Z,101520.19
2022-10-31T06:53:15.222Z,101514.34
2022-10-31T06:55:43.063Z,101524.72
2022-10-31T06:58:11.848Z,101519.16
2022-10-31T07:00:39.287Z,101517.97
2022-10-31T07:03:12.595Z,101523.97
2022-10-31T07:05:40.437Z,101524.53
2022-10-31T07:08:11.665Z,101531.09
2022-10-31T07:10:41.222Z,101528.13
2022-10-31T07:13:15.134Z,101526.63
2022-10-31T07:15:44.698Z,101532.75
2022-10-31T07:18:13.563Z,101536.06
2022-10-31T07:20:41.296Z,101537.63
2022-10-31T07:23:12.200Z,101536.31
2022-10-31T07:25:41.160Z,101543.09
2022-10-31T07:28:08.986Z,101549.34
2022-10-31T07:30:36.286Z,101556.81
2022-10-31T07:33:06.146Z,101557.53
2022-10-31T07:35:35.875Z,101569.38
2022-10-31T07:38:14.189Z,101560.47
2022-10-31T07:40:44.844Z,101565.16
2022-10-31T07:43:14.434Z,101570.59
2022-10-31T07:45:45.708Z,101570.84
2022-10-31T07:48:12.735Z,101568.50
2022-10-31T07:50:40.335Z,101568.88
2022-10-31T07:53:15.435Z,101581.25
2022-10-31T07:55:43.024Z,101579.66
2022-10-31T07:58:13.895Z,101584.81
2022-10-31T08:00:43.876Z,101583.25
2022-10-31T08:03:14.468Z,101584.66
2022-10-31T08:05:42.342Z,101592.88
2022-10-31T08:08:09.995Z,101578.31
2022-10-31T08:10:37.805Z,101578.69
2022-10-31T08:13:13.800Z,101581.50
2022-10-31T08:15:42.868Z,101581.81
2022-10-31T08:18:16.721Z,101583.72
2022-10-31T08:20:44.703Z,101585.41
2022-10-31T08:23:13.789Z,101583.91
2022-10-31T08:25:42.873Z,101588.91
2022-10-31T08:28:12.697Z,101587.06
2022-10-31T08:30:41.048Z,101581.22
2022-10-31T08:33:16.068Z,101571.66
2022-10-31T08:35:43.306Z,101575.56
2022-10-31T08:38:12.820Z,101572.88
2022-10-31T08:40:43.063Z,101577.84
2022-10-31T08:43:18.126Z,101574.78
2022-10-31T08:45:50.381Z,101574.44
2022-10-31T08:48:18.226Z,101580.75
2022-10-31T08:50:46.728Z,101575.00
2022-10-31T08:53:20.029Z,101585.69
2022-10-31T08:55:48.207Z,101578.72
2022-10-31T08:58:19.094Z,101578.00
2022-10-31T09:00:50.749Z,101581.94
2022-10-31T09:03:25.062Z,101574.09
2022-10-31T09:05:56.720Z,101584.31
2022-10-31T09:08:24.471Z,101584.41
2022-10-31T09:10:52.022Z,101595.91
2022-10-31T09:13:28.120Z,101600.19
2022-10-31T09:15:57.451Z,101594.16
2022-10-31T09:18:25.961Z,101598.22
2022-10-31T09:20:52.979Z,101605.06
2022-10-31T09:23:23.800Z,101609.13
2022-10-31T09:25:53.124Z,101611.75
2022-10-31T09:28:24.259Z,101615.66
2022-10-31T09:30:53.724Z,101606.13
2022-10-31T09:33:21.925Z,101606.72
2022-10-31T09:35:49.198Z,101611.34
2022-10-31T09:38:21.880Z,101607.94
2022-10-31T09:40:57.885Z,101617.41
2022-10-31T09:43:44.877Z,101618.31
2022-10-31T09:46:18.000Z,101615.56
2022-10-31T09:49:00.528Z,101607.66
2022-10-31T09:51:53.145Z,101614.47
2022-10-31T09:54:33.399Z,101620.94
2022-10-31T09:57:01.834Z,101622.78
2022-10-31T09:59:35.848Z,101612.63
2022-10-31T10:02:25.948Z,101623.88
2022-10-31T10:04:54.842Z,101615.59
2022-10-31T10:08:11.947Z,101627.50
2022-10-31T10:11:06.984Z,101623.41
2022-10-31T10:14:19.106Z,101628.94
2022-10-31T10:17:20.120Z,101623.38
2022-10-31T10:20:15.005Z,101622.41
2022-10-31T10:23:17.275Z,101623.88
2022-10-31T10:25:50.850Z,101619.25
2022-10-31T10:28:42.733Z,101618.75
2022-10-31T10:31:41.469Z,101627.00
2022-10-31T10:34:21.958Z,101630.66
2022-10-31T10:37:01.400Z,101618.56
2022-10-31T10:39:44.767Z,101627.41
2022-10-31T10:42:50.790Z,101615.69
2022-10-31T10:45:39.176Z,101623.72
2022-10-31T10:48:39.768Z,101623.13
2022-10-31T10:51:25.704Z,101615.59
2022-10-31T10:54:33.587Z,101617.66
2022-10-31T10:57:30.114Z,101614.34
2022-10-31T10:59:59.786Z,101609.69
2022-10-31T11:02:32.490Z,101594.44
2022-10-31T11:05:02.320Z,101592.28
2022-10-31T11:07:40.839Z,101599.97
2022-10-31T11:10:17.045Z,101604.56
2022-10-31T11:12:59.611Z,101602.31
2022-10-31T11:15:28.591Z,101602.84
2022-10-31T11:17:57.310Z,101605.88
2022-10-31T11:20:35.783Z,101607.06
2022-10-31T11:23:19.388Z,101601.84
2022-10-31T11:25:58.376Z,101606.47
2022-10-31T11:28:27.829Z,101606.81
2022-10-31T11:31:14.538Z,101605.03
2022-10-31T11:33:54.281Z,101609.56
2022-10-31T11:36:30.354Z,101604.41
2022-10-31T11:38:59.854Z,101601.56
2022-10-31T11:41:39.566Z,101612.44
2022-10-31T11:44:17.698Z,101620.25
2022-10-31T11:46:59.807Z,101621.63
2022-10-31T11:49:44.028Z,101615.78
2022-10-31T11:52:29.599Z,101615.44
2022-10-31T11:55:37.399Z,101621.53
2022-10-31T11:58:20.468Z,101623.84
2022-10-31T12:00:52.979Z,101616.69
2022-10-31T12:03:55.993Z,101621.66
2022-10-31T12:06:41.166Z,101614.28
2022-10-31T12:09:35.054Z,101615.19
2022-10-31T12:12:23.653Z,101606.56
2022-10-31T12:15:24.673Z,101607.66
2022-10-31T12:18:25.932Z,101608.22
2022-10-31T12:21:47.116Z,101602.53
2022-10-31T12:25:09.012Z,101605.28
2022-10-31T12:27:41.653Z,101601.63
2022-10-31T12:30:20.202Z,101601.00
2022-10-31T12:33:21.321Z,101605.03
2022-10-31T12:35:56.955Z,101599.56
2022-10-31T12:38:44.953Z,101598.72
2022-10-31T12:41:52.154Z,101600.28
2022-10-31T12:44:58.096Z,101596.25
2022-10-31T12:48:08.178Z,101585.13
2022-10-31T12:51:09.930Z,101577.88
2022-10-31T12:54:16.600Z,101585.41
2022-10-31T12:56:52.003Z,101586.53
2022-10-31T12:59:44.206Z,101591.19
2022-10-31T13:02:58.870Z,101588.31
2022-10-31T13:05:38.777Z,101591.53
2022-10-31T13:08:19.010Z,101591.31
2022-10-31T13:11:31.810Z,101590.38
2022-10-31T13:14:07.670Z,101589.72
2022-10-31T13:16:48.748Z,101587.94
2022-10-31T13:19:45.953Z,101589.03
2022-10-31T13:22:30.491Z,101587.06
2022-10-31T13:25:14.873Z,101579.22
2022-10-31T13:28:10.285Z,101582.88
2022-10-31T13:30:43.097Z,101582.28
2022-10-31T13:33:19.994Z,101580.06
2022-10-31T13:36:21.029Z,101588.31
2022-10-31T13:39:06.038Z,101580.22
2022-10-31T13:41:43.870Z,101582.28
2022-10-31T13:44:21.669Z,101581.13
2022-10-31T13:46:49.075Z,101577.03
2022-10-31T13:49:31.403Z,101572.84
2022-10-31T13:52:10.562Z,101571.50
2022-10-31T13:54:47.823Z,101581.66
2022-10-31T13:57:23.405Z,101577.59
2022-10-31T13:59:55.963Z,101579.38
2022-10-31T14:02:35.370Z,101572.78
2022-10-31T14:05:20.873Z,101581.94
2022-10-31T14:07:51.080Z,101576.38
2022-10-31T14:10:34.555Z,101577.59
2022-10-31T14:13:32.538Z,101567.75
2022-10-31T14:16:20.061Z,101570.50
2022-10-31T14:18:58.370Z,101562.06
2022-10-31T14:21:25.359Z,101569.09
2022-10-31T14:23:55.077Z,101558.78
2022-10-31T14:26:28.383Z,101565.03
2022-10-31T14:29:19.273Z,101567.53
2022-10-31T14:32:26.800Z,101580.00
2022-10-31T14:34:56.658Z,101565.59
2022-10-31T14:38:13.530Z,101572.41
2022-10-31T14:41:05.308Z,101571.97
2022-10-31T14:44:03.729Z,101576.13
2022-10-31T14:47:00.704Z,101572.91
2022-10-31T14:49:41.793Z,101573.03
2022-10-31T14:52:14.702Z,101572.03
2022-10-31T14:54:51.434Z,101579.91
2022-10-31T14:57:30.600Z,101583.22
2022-10-31T15:00:05.295Z,101584.84
2022-10-31T15:03:16.942Z,101585.09
2022-10-31T15:05:55.056Z,101582.56
2022-10-31T15:08:51.747Z,101580.97
2022-10-31T15:11:27.815Z,101578.81
2022-10-31T15:13:58.825Z,101578.38
2022-10-31T15:16:35.750Z,101576.78
2022-10-31T15:19:11.247Z,101588.78
2022-10-31T15:21:44.574Z,101586.56
2022-10-31T15:24:19.616Z,101583.63
2022-10-31T15:26:53.338Z,101589.75
2022-10-31T15:29:24.501Z,101591.63
2022-10-31T15:32:01.431Z,101577.25
2022-10-31T15:34:40.883Z,101595.66
2022-10-31T15:37:17.160Z,101595.69
2022-10-31T15:39:45.979Z,101591.44
2022-10-31T15:42:40.377Z,101593.00
2022-10-31T15:45:22.547Z,101590.56
2022-10-31T15:48:04.002Z,101586.81
2022-10-31T15:50:41.414Z,101590.41
2022-10-31T15:53:20.641Z,101588.22
2022-10-31T15:56:00.384Z,101585.88
2022-10-31T15:58:29.734Z,101586.72
2022-10-31T16:01:04.100Z,101595.59
2022-10-31T16:03:33.965Z,101594.06
2022-10-31T16:06:04.904Z,101591.06
2022-10-31T16:08:32.497Z,101591.97
2022-10-31T16:11:39.290Z,101592.78
2022-10-31T16:14:28.059Z,101589.41
2022-10-31T16:16:59.059Z,101599.84
2022-10-31T16:19:33.676Z,101598.41
2022-10-31T16:22:14.758Z,101601.66
2022-10-31T16:24:52.546Z,101593.22
2022-10-31T16:27:33.592Z,101597.84
2022-10-31T16:30:24.969Z,101602.91
2022-10-31T16:33:02.313Z,101589.78
2022-10-31T16:35:39.495Z,101603.75
2022-10-31T16:38:07.059Z,101602.63
2022-10-31T16:40:35.309Z,101611.31
2022-10-31T16:43:02.961Z,101605.13
2022-10-31T16:45:32.994Z,101608.38
2022-10-31T16:48:12.250Z,101612.13
2022-10-31T16:50:44.320Z,101604.13
2022-10-31T16:53:14.494Z,101608.72
2022-10-31T16:55:57.774Z,101603.00
2022-10-31T16:58:29.249Z,101606.88
2022-10-31T17:00:57.427Z,101598.81
2022-10-31T17:03:24.613Z,101612.28
2022-10-31T17:05:51.855Z,101608.59
2022-10-31T17:08:19.002Z,101607.34
2022-10-31T17:10:46.830Z,101606.31
2022-10-31T17:13:22.671Z,101602.66
2022-10-31T17:15:54.943Z,101600.56
2022-10-31T17:18:27.134Z,101610.59
2022-10-31T17:21:00.478Z,101605.03
2022-10-31T17:23:28.887Z,101602.44
2022-10-31T17:25:56.822Z,101612.97
2022-10-31T17:28:25.120Z,101606.31
2022-10-31T17:30:54.037Z,101608.34
2022-10-31T17:33:21.884Z,101598.72
2022-10-31T17:35:51.990Z,101597.16
2022-10-31T17:38:19.125Z,101605.56
2022-10-31T17:43:18.908Z,101597.97
2022-10-31T17:45:46.102Z,101589.19
2022-10-31T17:48:21.617Z,101595.41
2022-10-31T17:50:48.667Z,101598.63
2022-10-31T17:53:15.714Z,101593.28
2022-10-31T17:55:42.767Z,101604.72
2022-10-31T17:58:12.931Z,101599.50
2022-10-31T18:00:45.959Z,101603.19
2022-10-31T18:03:15.950Z,101604.78
2022-10-31T18:05:56.458Z,101612.75
2022-10-31T18:08:32.724Z,101601.47
2022-10-31T18:11:00.759Z,101598.06
2022-10-31T18:13:28.601Z,101593.72
2022-10-31T18:15:55.847Z,101588.63
2022-10-31T18:18:23.002Z,101588.91
2022-10-31T18:20:50.062Z,101598.47
2022-10-31T18:23:17.197Z,101588.75
2022-10-31T18:25:44.559Z,101591.19
2022-10-31T18:28:11.765Z,101583.75
2022-10-31T18:30:42.443Z,101596.91
2022-10-31T18:33:12.184Z,101596.56
2022-10-31T18:35:40.417Z,101590.81
2022-10-31T18:38:08.029Z,101592.31
2022-10-31T18:40:36.312Z,101593.25
2022-10-31T18:43:06.236Z,101595.06
2022-10-31T18:45:47.220Z,101591.91
2022-10-31T18:48:17.325Z,101603.72
2022-10-31T18:50:44.675Z,101590.31
2022-10-31T18:53:11.761Z,101594.03
2022-10-31T18:55:47.549Z,101589.13
2022-10-31T18:58:17.870Z,101586.88
2022-10-31T19:00:46.061Z,101589.41
2022-10-31T19:03:14.329Z,101590.66
2022-10-31T19:05:41.680Z,101589.00
2022-10-31T19:08:08.793Z,101593.81
2022-10-31T19:10:38.829Z,101591.38
2022-10-31T19:13:06.438Z,101593.25
2022-10-31T19:15:35.715Z,101591.84
2022-10-31T19:18:03.588Z,101592.88
2022-10-31T19:20:31.684Z,101587.28
2022-10-31T19:22:59.197Z,101582.28
2022-10-31T19:25:26.521Z,101582.41
2022-10-31T19:27:53.616Z,101577.56
2022-10-31T19:30:23.451Z,101571.81
2022-10-31T19:32:55.974Z,101569.97
2022-10-31T19:35:23.116Z,101569.56
2022-10-31T19:37:50.203Z,101570.91
2022-10-31T19:40:19.880Z,101561.34
2022-10-31T19:42:47.857Z,101566.66
2022-10-31T19:45:15.078Z,101569.78
2022-10-31T19:47:42.566Z,101570.41
2022-10-31T19:50:10.046Z,101569.22
2022-10-31T19:52:37.179Z,101570.81
2022-10-31T19:55:04.680Z,101572.78
2022-10-31T19:58:00.405Z,101567.97
2022-10-31T20:00:22.518Z,101566.75
2022-10-31T20:02:49.691Z,101558.69
2022-10-31T20:05:19.292Z,101559.63
2022-10-31T20:07:46.475Z,101555.03
2022-10-31T20:10:13.651Z,101546.94
2022-10-31T20:12:40.918Z,101557.59
2022-10-31T20:15:10.586Z,101547.41
2022-10-31T20:17:37.645Z,101557.19
2022-10-31T20:20:08.868Z,101554.63
2022-10-31T20:22:36.902Z,101556.09
2022-10-31T20:25:05.254Z,101553.44
2022-10-31T20:27:32.758Z,101550.00
2022-10-31T20:30:00.258Z,101546.44
2022-10-31T20:32:27.319Z,101548.75
2022-10-31T20:34:54.475Z,101551.06
2022-10-31T20:37:21.550Z,101554.41
2022-10-31T20:39:50.391Z,101553.84
2022-10-31T20:42:22.108Z,101548.22
2022-10-31T20:44:49.194Z,101543.25
2022-10-31T20:47:18.494Z,101554.88
2022-10-31T20:49:47.613Z,101553.09
2022-10-31T20:52:14.700Z,101557.66
2022-10-31T20:54:41.964Z,101551.72
2022-10-31T20:57:09.041Z,101565.47
2022-10-31T20:59:37.653Z,101561.94
2022-10-31T21:02:04.877Z,101555.06
2022-10-31T21:04:34.389Z,101559.09
2022-10-31T21:07:01.473Z,101561.28
2022-10-31T21:09:28.600Z,101555.75
2022-10-31T21:11:55.769Z,101555.31
2022-10-31T21:14:22.883Z,101552.13
2022-10-31T21:16:52.462Z,101554.72
2022-10-31T21:19:21.883Z,101553.44
2022-10-31T21:21:54.143Z,101551.09
2022-10-31T21:24:22.034Z,101549.28
2022-10-31T21:26:52.015Z,101550.88
2022-10-31T21:29:20.338Z,101552.16
2022-10-31T21:31:48.676Z,101552.72
2022-10-31T21:34:16.460Z,101540.47
2022-10-31T21:36:43.601Z,101543.38
2022-10-31T21:39:10.784Z,101556.16
2022-10-31T21:41:38.249Z,101557.25
2022-10-31T21:44:05.596Z,101550.50
2022-10-31T21:46:34.119Z,101542.91
2022-10-31T21:49:03.607Z,101547.94
2022-10-31T21:51:34.636Z,101544.44
2022-10-31T21:54:20.786Z,101540.06
2022-10-31T21:56:51.673Z,101538.03
2022-10-31T21:59:21.249Z,101537.38
2022-10-31T22:01:49.143Z,101534.66
2022-10-31T22:04:16.774Z,101534.50
2022-10-31T22:06:44.316Z,101533.47
2022-10-31T22:09:14.930Z,101526.09
2022-10-31T22:11:44.566Z,101531.63
2022-10-31T22:14:14.470Z,101517.34
2022-10-31T22:16:42.487Z,101523.09
2022-10-31T22:19:13.197Z,101513.69
2022-10-31T22:21:48.922Z,101515.97
2022-10-31T22:24:17.653Z,101513.16
2022-10-31T22:29:20.624Z,101509.50
2022-10-31T22:31:53.550Z,101511.78
2022-10-31T22:34:24.545Z,101512.16
2022-10-31T22:36:51.770Z,101512.44
2022-10-31T22:39:18.883Z,101513.16
2022-10-31T22:41:45.975Z,101502.97
2022-10-31T22:44:13.132Z,101509.16
2022-10-31T22:46:40.492Z,101505.84
2022-10-31T22:49:15.099Z,101505.16
2022-10-31T22:51:43.933Z,101505.56
2022-10-31T22:54:17.306Z,101502.59
2022-10-31T22:56:45.328Z,101499.75
2022-10-31T22:59:15.662Z,101498.75
2022-10-31T23:01:45.808Z,101501.31
2022-10-31T23:04:15.720Z,101503.03
2022-10-31T23:06:43.459Z,101497.03
2022-10-31T23:09:15.876Z,101493.44
2022-10-31T23:11:43.388Z,101495.53
2022-10-31T23:14:16.470Z,101489.09
2022-10-31T23:16:56.278Z,101490.91
2022-10-31T23:19:24.569Z,101491.94
2022-10-31T23:21:55.306Z,101483.41
2022-10-31T23:24:36.787Z,101481.34
2022-10-31T23:27:11.409Z,101484.88
2022-10-31T23:29:53.091Z,101487.53
2022-10-31T23:32:29.054Z,101479.47
2022-10-31T23:35:04.701Z,101484.56
2022-10-31T23:37:34.739Z,101482.09
2022-10-31T23:40:02.047Z,101475.50
2022-10-31T23:42:32.399Z,101474.72
2022-10-31T23:44:59.468Z,101470.50
2022-10-31T23:47:28.856Z,101471.03
2022-10-31T23:49:56.037Z,101465.97
2022-10-31T23:52:23.146Z,101469.84
2022-10-31T23:54:50.304Z,101465.81
2022-10-31T23:57:17.795Z,101468.66
2022-10-31T23:59:45.159Z,101464.78
